createdAt,value
2018-02-23T00:00:33.541Z,17.70
2018-02-23T00:01:33.553Z,17.70
2018-02-23T00:02:33.568Z,17.00
2018-02-23T00:03:33.590Z,17.10
2018-02-23T00:04:33.605Z,16.90
2018-02-23T00:05:33.617Z,17.80
2018-02-23T00:06:33.635Z,17.10
2018-02-23T00:07:33.655Z,18.20
2018-02-23T00:08:33.675Z,17.10
2018-02-23T00:09:33.683Z,17.40
2018-02-23T00:10:33.699Z,17.80
2018-02-23T00:11:33.721Z,18.20
2018-02-23T00:12:33.732Z,18.70
2018-02-23T00:13:33.755Z,17.40
2018-02-23T00:14:33.765Z,18.20
2018-02-23T00:15:33.787Z,18.10
2018-02-23T00:16:33.801Z,18.20
2018-02-23T00:17:33.828Z,18.50
2018-02-23T00:18:33.836Z,18.40
2018-02-23T00:19:33.847Z,17.90
2018-02-23T00:20:33.863Z,18.80
2018-02-23T00:21:33.885Z,17.70
2018-02-23T00:22:33.901Z,18.70
2018-02-23T00:23:33.913Z,19.10
2018-02-23T00:24:33.928Z,18.80
2018-02-23T00:25:33.951Z,19.00
2018-02-23T00:26:33.967Z,18.90
2018-02-23T00:27:33.978Z,18.70
2018-02-23T00:28:33.993Z,19.50
2018-02-23T00:29:34.016Z,19.10
2018-02-23T00:30:34.033Z,17.60
2018-02-23T00:31:34.044Z,18.60
2018-02-23T00:32:34.063Z,19.80
2018-02-23T00:33:34.081Z,19.70
2018-02-23T00:34:34.092Z,19.20
2018-02-23T00:35:34.115Z,18.00
2018-02-23T00:36:34.129Z,19.30
2018-02-23T00:37:34.141Z,20.00
2018-02-23T00:38:34.159Z,18.70
2018-02-23T00:39:34.182Z,18.80
2018-02-23T00:40:34.197Z,18.00
2018-02-23T00:41:34.208Z,18.90
2018-02-23T00:42:34.224Z,19.60
2018-02-23T00:43:34.246Z,19.00
2018-02-23T00:44:34.262Z,18.50
2018-02-23T00:45:34.274Z,19.10
2018-02-23T00:46:34.289Z,20.00
2018-02-23T00:47:34.312Z,19.30
2018-02-23T00:48:34.327Z,19.40
2018-02-23T00:49:34.339Z,19.30
2018-02-23T00:50:34.361Z,19.90
2018-02-23T00:51:34.373Z,19.40
2018-02-23T00:52:34.392Z,19.70
2018-02-23T00:53:34.403Z,20.00
2018-02-23T00:54:34.426Z,20.00
2018-02-23T00:55:34.437Z,20.10
2018-02-23T00:56:34.460Z,20.30
2018-02-23T00:57:34.471Z,20.40
2018-02-23T00:58:34.491Z,19.40
2018-02-23T00:59:34.502Z,21.10
2018-02-23T01:00:34.524Z,20.60
2018-02-23T01:01:34.535Z,20.70
2018-02-23T01:02:34.558Z,21.30
2018-02-23T01:03:34.568Z,21.90
2018-02-23T01:04:34.591Z,21.30
2018-02-23T01:05:34.600Z,20.70
2018-02-23T01:06:34.617Z,22.00
2018-02-23T01:07:34.639Z,20.80
2018-02-23T01:08:34.651Z,21.10
2018-02-23T01:09:34.673Z,22.00
2018-02-23T01:10:34.684Z,21.20
2018-02-23T01:11:34.706Z,21.60
2018-02-23T01:12:34.719Z,21.60
2018-02-23T01:13:34.741Z,20.50
2018-02-23T01:14:34.752Z,21.40
2018-02-23T01:15:34.772Z,21.50
2018-02-23T01:16:34.783Z,21.80
2018-02-23T01:17:34.805Z,22.30
2018-02-23T01:18:34.815Z,21.90
2018-02-23T01:19:34.838Z,21.60
2018-02-23T01:20:34.849Z,21.50
2018-02-23T01:21:34.916Z,22.30
2018-02-23T01:22:34.881Z,21.70
2018-02-23T01:23:34.898Z,23.00
2018-02-23T01:24:34.918Z,22.10
2018-02-23T01:25:34.931Z,22.50
2018-02-23T01:26:34.948Z,21.90
2018-02-23T01:27:34.969Z,21.30
2018-02-23T01:28:35.185Z,21.00
2018-02-23T01:29:34.996Z,22.20
2018-02-23T01:30:35.013Z,21.60
2018-02-23T01:31:35.035Z,21.80
2018-02-23T01:32:35.052Z,23.50
2018-02-23T01:33:35.061Z,22.00
2018-02-23T01:34:35.079Z,22.50
2018-02-23T01:35:35.104Z,21.80
2018-02-23T01:36:35.117Z,21.90
2018-02-23T01:37:35.128Z,21.70
2018-02-23T01:38:35.151Z,22.20
2018-02-23T01:39:35.173Z,22.60
2018-02-23T01:40:35.179Z,23.50
2018-02-23T01:41:35.201Z,23.40
2018-02-23T01:42:35.338Z,23.00
2018-02-23T01:43:35.228Z,22.70
2018-02-23T01:44:35.244Z,23.70
2018-02-23T01:45:35.267Z,22.90
2018-02-23T01:46:35.282Z,23.00
2018-02-23T01:47:35.294Z,23.70
2018-02-23T01:48:35.310Z,24.00
2018-02-23T01:49:35.332Z,24.20
2018-02-23T01:50:35.349Z,24.30
2018-02-23T01:51:35.360Z,23.20
2018-02-23T01:52:35.377Z,23.90
2018-02-23T01:53:35.399Z,23.60
2018-02-23T01:54:35.414Z,23.40
2018-02-23T01:55:35.426Z,25.00
2018-02-23T01:56:35.448Z,24.60
2018-02-23T01:57:35.458Z,23.90
2018-02-23T01:58:35.482Z,23.40
2018-02-23T01:59:35.493Z,23.80
2018-02-23T02:00:35.516Z,23.40
2018-02-23T02:01:35.525Z,24.80
2018-02-23T02:02:35.548Z,24.60
2018-02-23T02:03:35.562Z,24.90
2018-02-23T02:04:35.580Z,23.30
2018-02-23T02:05:35.592Z,25.10
2018-02-23T02:06:35.616Z,26.10
2018-02-23T02:07:35.625Z,25.10
2018-02-23T02:08:35.646Z,25.10
2018-02-23T02:09:35.657Z,24.40
2018-02-23T02:10:35.674Z,25.30
2018-02-23T02:11:35.696Z,25.40
2018-02-23T02:12:35.706Z,24.70
2018-02-23T02:13:35.729Z,25.10
2018-02-23T02:14:35.740Z,25.80
2018-02-23T02:15:35.763Z,25.30
2018-02-23T02:16:35.772Z,25.40
2018-02-23T02:17:35.795Z,27.10
2018-02-23T02:18:35.806Z,25.60
2018-02-23T02:19:35.828Z,26.00
2018-02-23T02:20:35.838Z,25.30
2018-02-23T02:21:35.873Z,25.40
2018-02-23T02:22:35.872Z,28.50
2018-02-23T02:23:35.892Z,26.00
2018-02-23T02:24:35.904Z,25.80
2018-02-23T02:25:35.926Z,27.40
2018-02-23T02:26:35.936Z,26.80
2018-02-23T02:27:35.959Z,26.20
2018-02-23T02:28:35.970Z,27.30
2018-02-23T02:29:35.992Z,27.10
2018-02-23T02:30:36.005Z,26.20
2018-02-23T02:31:36.027Z,28.00
2018-02-23T02:32:36.035Z,26.30
2018-02-23T02:33:36.058Z,28.10
2018-02-23T02:34:36.071Z,27.20
2018-02-23T02:35:36.090Z,27.40
2018-02-23T02:36:36.107Z,27.30
2018-02-23T02:37:36.119Z,28.90
2018-02-23T02:38:36.134Z,28.60
2018-02-23T02:39:36.156Z,27.80
2018-02-23T02:40:36.176Z,28.10
2018-02-23T02:41:36.185Z,27.60
2018-02-23T02:42:36.201Z,27.50
2018-02-23T02:43:36.223Z,28.60
2018-02-23T02:44:36.240Z,27.50
2018-02-23T02:45:36.249Z,26.80
2018-02-23T02:46:36.268Z,27.50
2018-02-23T02:47:36.289Z,28.30
2018-02-23T02:48:36.306Z,28.90
2018-02-23T02:49:36.317Z,29.20
2018-02-23T02:50:36.338Z,29.10
2018-02-23T02:51:36.351Z,28.90
2018-02-23T02:52:36.364Z,28.30
2018-02-23T02:53:36.388Z,30.00
2018-02-23T02:54:36.404Z,29.50
2018-02-23T02:55:36.414Z,29.10
2018-02-23T02:56:36.430Z,29.70
2018-02-23T02:57:36.453Z,29.40
2018-02-23T02:58:36.465Z,29.10
2018-02-23T02:59:36.487Z,29.40
2018-02-23T03:00:36.504Z,30.70
2018-02-23T03:01:36.513Z,29.10
2018-02-23T03:02:36.530Z,29.50
2018-02-23T03:03:36.552Z,29.70
2018-02-23T03:04:36.568Z,28.50
2018-02-23T03:05:36.578Z,29.80
2018-02-23T03:06:36.615Z,30.40
2018-02-23T03:07:36.611Z,30.30
2018-02-23T03:08:36.634Z,29.40
2018-02-23T03:09:36.656Z,29.80
2018-02-23T03:10:36.667Z,29.90
2018-02-23T03:11:36.678Z,30.70
2018-02-23T03:12:36.700Z,29.40
2018-02-23T03:13:36.710Z,28.10
2018-02-23T03:14:36.736Z,29.80
2018-02-23T03:15:36.744Z,30.20
2018-02-23T03:16:36.767Z,30.10
2018-02-23T03:17:36.776Z,29.90
2018-02-23T03:18:36.798Z,32.50
2018-02-23T03:19:36.810Z,31.90
2018-02-23T03:20:36.830Z,30.70
2018-02-23T03:21:36.840Z,30.90
2018-02-23T03:22:36.857Z,33.50
2018-02-23T03:23:36.880Z,31.20
2018-02-23T03:24:36.891Z,31.70
2018-02-23T03:25:36.912Z,31.20
2018-02-23T03:26:36.924Z,31.50
2018-02-23T03:27:36.945Z,31.70
2018-02-23T03:28:36.955Z,32.40
2018-02-23T03:29:36.979Z,32.10
2018-02-23T03:30:36.996Z,31.90
2018-02-23T03:31:37.006Z,32.50
2018-02-23T03:32:37.027Z,33.60
2018-02-23T03:33:37.039Z,32.50
2018-02-23T03:34:37.053Z,31.10
2018-02-23T03:35:37.077Z,33.80
2018-02-23T03:36:37.091Z,34.30
2018-02-23T03:37:37.107Z,33.70
2018-02-23T03:38:37.119Z,33.30
2018-02-23T03:39:37.140Z,33.10
2018-02-23T03:40:37.151Z,34.10
2018-02-23T03:41:37.172Z,34.60
2018-02-23T03:42:37.184Z,33.40
2018-02-23T03:43:37.207Z,34.70
2018-02-23T03:44:37.216Z,34.20
2018-02-23T03:45:37.239Z,35.10
2018-02-23T03:46:37.248Z,34.60
2018-02-23T03:47:37.265Z,35.00
2018-02-23T03:48:37.280Z,35.50
2018-02-23T03:49:37.303Z,35.00
2018-02-23T03:50:37.315Z,34.10
2018-02-23T03:51:37.336Z,34.80
2018-02-23T03:52:37.345Z,34.50
2018-02-23T03:53:37.361Z,36.00
2018-02-23T03:54:37.383Z,35.70
2018-02-23T03:55:37.395Z,35.90
2018-02-23T03:56:37.442Z,36.30
2018-02-23T03:57:37.427Z,35.70
2018-02-23T03:58:37.449Z,36.50
2018-02-23T03:59:37.459Z,36.20
2018-02-23T04:00:37.480Z,36.90
2018-02-23T04:01:37.490Z,35.10
2018-02-23T04:02:37.507Z,37.60
2018-02-23T04:03:37.529Z,37.30
2018-02-23T04:04:37.545Z,35.60
2018-02-23T04:05:37.561Z,36.50
2018-02-23T04:06:37.578Z,36.60
2018-02-23T04:07:37.594Z,35.90
2018-02-23T04:08:37.604Z,37.60
2018-02-23T04:09:37.626Z,37.00
2018-02-23T04:10:37.636Z,35.00
2018-02-23T04:11:37.659Z,36.60
2018-02-23T04:12:37.673Z,37.40
2018-02-23T04:13:37.689Z,35.80
2018-02-23T04:14:37.700Z,36.20
2018-02-23T04:15:37.727Z,36.70
2018-02-23T04:16:37.737Z,36.20
2018-02-23T04:17:37.748Z,36.40
2018-02-23T04:18:37.770Z,37.50
2018-02-23T04:19:37.780Z,37.50
2018-02-23T04:20:37.803Z,36.10
2018-02-23T04:21:37.812Z,36.10
2018-02-23T04:22:37.830Z,36.00
2018-02-23T04:23:37.846Z,36.50
2018-02-23T04:24:37.865Z,35.90
2018-02-23T04:25:37.884Z,36.20
2018-02-23T04:26:37.898Z,34.50
2018-02-23T04:27:37.913Z,34.00
2018-02-23T04:28:37.926Z,36.00
2018-02-23T04:29:37.947Z,35.80
2018-02-23T04:30:37.962Z,35.10
2018-02-23T04:31:37.982Z,34.30
2018-02-23T04:32:37.987Z,36.00
2018-02-23T04:33:38.010Z,35.10
2018-02-23T04:34:38.020Z,35.80
2018-02-23T04:35:38.040Z,33.30
2018-02-23T04:36:38.051Z,33.90
2018-02-23T04:37:38.074Z,34.20
2018-02-23T04:38:38.085Z,33.70
2018-02-23T04:39:38.105Z,35.60
2018-02-23T04:40:38.117Z,35.40
2018-02-23T04:41:38.134Z,36.30
2018-02-23T04:42:38.148Z,34.90
2018-02-23T04:43:38.172Z,35.20
2018-02-23T04:44:38.179Z,36.60
2018-02-23T04:45:38.203Z,36.40
2018-02-23T04:46:38.212Z,36.00
2018-02-23T04:47:38.235Z,37.30
2018-02-23T04:48:38.245Z,35.70
2018-02-23T04:49:38.267Z,35.90
2018-02-23T04:50:38.287Z,37.10
2018-02-23T04:51:38.299Z,35.20
2018-02-23T04:52:38.314Z,35.30
2018-02-23T04:53:38.329Z,35.40
2018-02-23T04:54:38.347Z,35.00
2018-02-23T04:55:38.358Z,35.90
2018-02-23T04:56:38.379Z,36.00
2018-02-23T04:57:38.395Z,34.20
2018-02-23T04:58:38.412Z,35.70
2018-02-23T04:59:38.421Z,35.00
2018-02-23T05:00:38.443Z,36.80
2018-02-23T05:01:38.452Z,34.70
2018-02-23T05:02:38.474Z,34.70
2018-02-23T05:03:38.488Z,35.70
2018-02-23T05:04:38.506Z,36.60
2018-02-23T05:05:38.518Z,34.80
2018-02-23T05:06:38.539Z,37.10
2018-02-23T05:07:38.549Z,35.40
2018-02-23T05:08:38.570Z,35.00
2018-02-23T05:09:38.580Z,34.50
2018-02-23T05:10:38.606Z,35.50
2018-02-23T05:11:38.615Z,34.90
2018-02-23T05:12:38.633Z,35.60
2018-02-23T05:13:38.650Z,35.00
2018-02-23T05:14:38.663Z,33.40
2018-02-23T05:15:38.681Z,35.20
2018-02-23T05:16:38.697Z,33.50
2018-02-23T05:17:38.708Z,34.70
2018-02-23T05:18:38.723Z,34.80
2018-02-23T05:19:38.750Z,35.30
2018-02-23T05:20:38.760Z,34.50
2018-02-23T05:21:38.770Z,35.10
2018-02-23T05:22:38.792Z,33.90
2018-02-23T05:23:38.808Z,34.20
2018-02-23T05:24:38.819Z,34.60
2018-02-23T05:25:38.840Z,33.70
2018-02-23T05:26:38.855Z,33.30
2018-02-23T05:27:38.866Z,36.20
2018-02-23T05:28:38.880Z,35.90
2018-02-23T05:29:38.897Z,35.30
2018-02-23T05:30:38.919Z,34.70
2018-02-23T05:31:38.927Z,33.80
2018-02-23T05:32:38.944Z,33.90
2018-02-23T05:33:38.964Z,34.90
2018-02-23T05:34:38.981Z,35.00
2018-02-23T05:35:38.991Z,34.70
2018-02-23T05:36:39.005Z,34.90
2018-02-23T05:37:39.026Z,35.70
2018-02-23T05:38:39.036Z,33.90
2018-02-23T05:39:39.060Z,34.70
2018-02-23T05:40:39.074Z,34.40
2018-02-23T05:41:39.086Z,36.60
2018-02-23T05:42:39.104Z,34.90
2018-02-23T05:43:39.121Z,34.10
2018-02-23T05:44:39.140Z,35.00
2018-02-23T05:45:39.145Z,35.70
2018-02-23T05:46:39.166Z,34.60
2018-02-23T05:47:39.178Z,35.00
2018-02-23T05:48:39.196Z,34.50
2018-02-23T05:49:39.208Z,35.10
2018-02-23T05:50:39.233Z,33.80
2018-02-23T05:51:39.244Z,32.90
2018-02-23T05:52:39.263Z,32.50
2018-02-23T05:53:39.274Z,33.40
2018-02-23T05:54:39.292Z,32.60
2018-02-23T05:55:39.302Z,33.60
2018-02-23T05:56:39.321Z,32.70
2018-02-23T05:57:39.334Z,33.90
2018-02-23T05:58:39.359Z,32.10
2018-02-23T05:59:39.364Z,33.10
2018-02-23T06:00:39.384Z,32.90
2018-02-23T06:01:39.396Z,32.30
2018-02-23T06:02:39.414Z,32.60
2018-02-23T06:03:39.432Z,32.60
2018-02-23T06:04:39.442Z,32.20
2018-02-23T06:05:39.463Z,32.40
2018-02-23T06:06:39.472Z,31.70
2018-02-23T06:07:39.494Z,30.60
2018-02-23T06:08:39.503Z,38.50
2018-02-23T06:09:39.524Z,36.00
2018-02-23T06:10:39.535Z,31.30
2018-02-23T06:11:39.558Z,31.80
2018-02-23T06:12:39.565Z,30.20
2018-02-23T06:13:39.587Z,30.90
2018-02-23T06:14:39.596Z,31.20
2018-02-23T06:15:39.618Z,30.70
2018-02-23T06:16:39.628Z,31.40
2018-02-23T06:17:39.648Z,31.50
2018-02-23T06:18:39.659Z,29.70
2018-02-23T06:19:39.681Z,31.20
2018-02-23T06:20:39.695Z,31.20
2018-02-23T06:21:39.705Z,29.90
2018-02-23T06:22:39.720Z,30.80
2018-02-23T06:23:39.741Z,29.40
2018-02-23T06:24:39.756Z,31.20
2018-02-23T06:25:39.767Z,30.10
2018-02-23T06:26:39.783Z,30.20
2018-02-23T06:27:39.804Z,29.00
2018-02-23T06:28:39.818Z,30.00
2018-02-23T06:29:39.829Z,29.20
2018-02-23T06:30:39.845Z,28.80
2018-02-23T06:31:39.865Z,29.60
2018-02-23T06:32:39.881Z,29.80
2018-02-23T06:33:39.890Z,28.30
2018-02-23T06:34:39.912Z,29.80
2018-02-23T06:35:39.921Z,27.30
2018-02-23T06:36:39.938Z,28.00
2018-02-23T06:37:39.958Z,28.80
2018-02-23T06:38:39.974Z,29.40
2018-02-23T06:39:39.984Z,28.40
2018-02-23T06:40:40.000Z,28.70
2018-02-23T06:41:40.020Z,28.50
2018-02-23T06:42:40.036Z,28.00
2018-02-23T06:43:40.050Z,27.50
2018-02-23T06:44:40.108Z,28.70
2018-02-23T06:45:40.075Z,27.80
2018-02-23T06:46:40.099Z,28.50
2018-02-23T06:47:40.116Z,28.70
2018-02-23T06:48:40.128Z,28.10
2018-02-23T06:49:40.137Z,28.30
2018-02-23T06:50:40.159Z,28.70
2018-02-23T06:51:40.169Z,28.00
2018-02-23T06:52:40.189Z,27.50
2018-02-23T06:53:40.200Z,26.00
2018-02-23T06:54:40.226Z,26.20
2018-02-23T06:55:40.238Z,27.60
2018-02-23T06:56:40.251Z,26.90
2018-02-23T06:57:40.261Z,26.90
2018-02-23T06:58:40.277Z,27.30
2018-02-23T06:59:40.300Z,26.80
2018-02-23T07:00:40.306Z,26.70
2018-02-23T07:01:40.327Z,27.30
2018-02-23T07:02:40.339Z,25.60
2018-02-23T07:03:40.360Z,25.40
2018-02-23T07:04:40.393Z,26.10
2018-02-23T07:05:40.390Z,26.20
2018-02-23T07:06:40.399Z,25.60
2018-02-23T07:07:40.419Z,26.80
2018-02-23T07:08:40.430Z,25.70
2018-02-23T07:09:40.451Z,25.20
2018-02-23T07:10:40.460Z,26.30
2018-02-23T07:11:40.486Z,24.50
2018-02-23T07:12:40.492Z,25.00
2018-02-23T07:13:40.516Z,25.50
2018-02-23T07:14:40.522Z,26.40
2018-02-23T07:15:40.544Z,24.20
2018-02-23T07:16:40.559Z,24.40
2018-02-23T07:17:40.569Z,25.20
2018-02-23T07:18:40.585Z,25.10
2018-02-23T07:19:40.606Z,24.40
2018-02-23T07:20:40.621Z,25.00
2018-02-23T07:21:40.631Z,23.90
2018-02-23T07:22:40.647Z,25.30
2018-02-23T07:23:40.668Z,24.80
2018-02-23T07:24:40.682Z,24.70
2018-02-23T07:25:40.693Z,24.00
2018-02-23T07:26:40.711Z,23.10
2018-02-23T07:27:40.730Z,23.30
2018-02-23T07:28:40.745Z,24.70
2018-02-23T07:29:40.755Z,23.30
2018-02-23T07:30:40.777Z,24.10
2018-02-23T07:31:40.790Z,22.40
2018-02-23T07:32:40.802Z,24.20
2018-02-23T07:33:40.822Z,24.00
2018-02-23T07:34:40.839Z,24.70
2018-02-23T07:35:40.851Z,23.80
2018-02-23T07:36:40.864Z,24.10
2018-02-23T07:37:40.886Z,24.50
2018-02-23T07:38:40.901Z,24.10
2018-02-23T07:39:40.912Z,22.80
2018-02-23T07:40:40.927Z,23.50
2018-02-23T07:41:40.948Z,23.50
2018-02-23T07:42:40.963Z,23.20
2018-02-23T07:43:40.974Z,22.90
2018-02-23T07:44:40.989Z,23.60
2018-02-23T07:45:41.012Z,22.70
2018-02-23T07:46:41.021Z,21.00
2018-02-23T07:47:41.043Z,22.70
2018-02-23T07:48:41.057Z,23.20
2018-02-23T07:49:41.068Z,21.00
2018-02-23T07:50:41.084Z,22.20
2018-02-23T07:51:41.104Z,22.30
2018-02-23T07:52:41.122Z,23.00
2018-02-23T07:53:41.132Z,21.60
2018-02-23T07:54:41.148Z,21.70
2018-02-23T07:55:41.162Z,19.50
2018-02-23T07:56:41.184Z,20.80
2018-02-23T07:57:41.199Z,20.80
2018-02-23T07:58:41.209Z,19.80
2018-02-23T07:59:41.231Z,18.40
2018-02-23T08:00:41.242Z,20.20
2018-02-23T08:01:41.264Z,18.40
2018-02-23T08:02:41.278Z,18.70
2018-02-23T08:03:41.290Z,18.50
2018-02-23T08:04:41.308Z,16.40
2018-02-23T08:05:41.329Z,18.00
2018-02-23T08:06:41.343Z,21.90
2018-02-23T08:07:41.351Z,19.90
2018-02-23T08:08:41.369Z,16.60
2018-02-23T08:09:41.389Z,16.30
2018-02-23T08:10:41.406Z,15.90
2018-02-23T08:11:41.421Z,17.60
2018-02-23T08:12:41.431Z,15.50
2018-02-23T08:13:41.453Z,15.50
2018-02-23T08:14:41.474Z,16.20
2018-02-23T08:15:41.480Z,16.40
2018-02-23T08:16:41.497Z,15.80
2018-02-23T08:17:41.512Z,14.30
2018-02-23T08:18:41.528Z,13.30
2018-02-23T08:19:41.550Z,13.10
2018-02-23T08:20:41.559Z,12.90
2018-02-23T08:21:41.581Z,14.10
2018-02-23T08:22:41.593Z,12.60
2018-02-23T08:23:41.613Z,12.50
2018-02-23T08:24:41.626Z,13.50
2018-02-23T08:25:41.646Z,13.40
2018-02-23T08:26:41.684Z,12.60
2018-02-23T08:27:41.671Z,14.00
2018-02-23T08:28:41.689Z,13.20
2018-02-23T08:29:41.703Z,14.10
2018-02-23T08:30:41.720Z,13.00
2018-02-23T08:31:41.736Z,12.40
2018-02-23T08:32:41.758Z,13.70
2018-02-23T08:33:41.769Z,13.00
2018-02-23T08:34:41.791Z,13.80
2018-02-23T08:35:41.800Z,13.10
2018-02-23T08:36:41.821Z,13.10
2018-02-23T08:37:41.832Z,13.20
2018-02-23T08:38:41.855Z,13.30
2018-02-23T08:39:41.866Z,12.20
2018-02-23T08:40:41.887Z,13.60
2018-02-23T08:41:41.898Z,12.20
2018-02-23T08:42:41.915Z,13.00
2018-02-23T08:43:41.937Z,13.40
2018-02-23T08:44:41.953Z,12.60
2018-02-23T08:45:41.970Z,12.90
2018-02-23T08:46:41.986Z,12.50
2018-02-23T08:47:42.006Z,13.60
2018-02-23T08:48:42.013Z,13.10
2018-02-23T08:49:42.037Z,13.10
2018-02-23T08:50:42.046Z,12.40
2018-02-23T08:51:42.069Z,12.70
2018-02-23T08:52:42.084Z,12.90
2018-02-23T08:53:42.096Z,12.50
2018-02-23T08:54:42.112Z,12.80
2018-02-23T08:55:42.179Z,13.00
2018-02-23T08:56:42.150Z,13.80
2018-02-23T08:57:42.161Z,12.70
2018-02-23T08:58:42.178Z,12.30
2018-02-23T08:59:42.201Z,13.40
2018-02-23T09:00:42.217Z,12.30
2018-02-23T09:01:42.232Z,12.40
2018-02-23T09:02:42.251Z,12.50
2018-02-23T09:03:42.267Z,11.80
2018-02-23T09:04:42.277Z,12.20
2018-02-23T09:05:42.303Z,12.10
2018-02-23T09:06:42.317Z,12.90
2018-02-23T09:07:42.328Z,12.10
2018-02-23T09:08:42.345Z,12.40
2018-02-23T09:09:42.368Z,12.20
2018-02-23T09:10:42.387Z,11.90
2018-02-23T09:11:42.395Z,11.40
2018-02-23T09:12:42.412Z,11.40
2018-02-23T09:13:42.436Z,11.30
2018-02-23T09:14:42.447Z,12.00
2018-02-23T09:15:42.466Z,10.90
2018-02-23T09:16:42.487Z,11.60
2018-02-23T09:17:42.504Z,10.40
2018-02-23T09:18:42.566Z,11.00
2018-02-23T09:19:42.542Z,11.60
2018-02-23T09:20:42.552Z,11.00
2018-02-23T09:21:42.576Z,11.20
2018-02-23T09:22:42.590Z,10.30
2018-02-23T09:23:42.616Z,12.10
2018-02-23T09:24:42.641Z,11.10
2018-02-23T09:25:42.653Z,11.10
2018-02-23T09:26:42.667Z,11.10
2018-02-23T09:27:42.693Z,11.60
2018-02-23T09:28:42.707Z,10.40
2018-02-23T09:29:42.732Z,11.60
2018-02-23T09:30:42.754Z,11.20
2018-02-23T09:31:42.769Z,11.40
2018-02-23T09:32:42.793Z,11.40
2018-02-23T09:33:42.816Z,11.60
2018-02-23T09:34:42.831Z,11.40
2018-02-23T09:35:42.851Z,10.90
2018-02-23T09:36:42.871Z,12.30
2018-02-23T09:37:42.898Z,10.50
2018-02-23T09:38:42.920Z,10.80
2018-02-23T09:39:42.935Z,10.90
2018-02-23T09:40:42.961Z,10.40
2018-02-23T09:41:42.979Z,10.60
2018-02-23T09:42:43.003Z,11.80
2018-02-23T09:43:43.018Z,10.80
2018-02-23T09:44:43.044Z,11.30
2018-02-23T09:45:43.058Z,11.40
2018-02-23T09:46:43.087Z,11.70
2018-02-23T09:47:43.100Z,11.30
2018-02-23T09:48:43.169Z,11.70
2018-02-23T09:49:43.140Z,11.60
2018-02-23T09:50:43.162Z,11.20
2018-02-23T09:51:43.184Z,11.70
2018-02-23T09:52:43.209Z,11.30
2018-02-23T09:53:43.225Z,10.80
2018-02-23T09:54:43.245Z,11.00
2018-02-23T09:55:43.272Z,10.80
2018-02-23T09:56:43.344Z,10.70
2018-02-23T09:57:43.307Z,10.90
2018-02-23T09:58:43.330Z,11.70
2018-02-23T09:59:43.355Z,10.10
2018-02-23T10:00:43.377Z,11.00
2018-02-23T10:01:43.392Z,11.20
2018-02-23T10:02:43.415Z,10.30
2018-02-23T10:03:43.440Z,10.60
2018-02-23T10:04:43.460Z,10.40
2018-02-23T10:05:43.480Z,10.00
2018-02-23T10:06:43.500Z,10.20
2018-02-23T10:07:43.528Z,10.00
2018-02-23T10:08:43.552Z,10.30
2018-02-23T10:09:43.567Z,9.60
2018-02-23T10:10:43.598Z,9.40
2018-02-23T10:11:43.614Z,9.20
2018-02-23T10:12:43.637Z,9.20
2018-02-23T10:13:43.675Z,9.50
2018-02-23T10:14:43.689Z,10.10
2018-02-23T10:15:43.709Z,9.40
2018-02-23T10:16:43.736Z,9.50
2018-02-23T10:17:43.762Z,9.10
2018-02-23T10:18:43.784Z,9.10
2018-02-23T10:19:43.805Z,9.30
2018-02-23T10:20:43.829Z,9.00
2018-02-23T10:21:43.859Z,9.20
2018-02-23T10:22:43.883Z,9.10
2018-02-23T10:23:43.902Z,9.20
2018-02-23T10:24:43.927Z,8.50
2018-02-23T10:25:43.959Z,8.50
2018-02-23T10:26:43.984Z,9.00
2018-02-23T10:27:44.006Z,8.80
2018-02-23T10:28:44.034Z,8.10
2018-02-23T10:29:44.060Z,7.80
2018-02-23T10:30:44.087Z,8.00
2018-02-23T10:31:44.108Z,8.10
2018-02-23T10:32:44.228Z,7.20
2018-02-23T10:33:44.160Z,7.20
2018-02-23T10:34:44.192Z,7.50
2018-02-23T10:35:44.211Z,7.10
2018-02-23T10:36:44.243Z,7.50
2018-02-23T10:37:44.266Z,7.40
2018-02-23T10:38:44.298Z,7.40
2018-02-23T10:39:44.320Z,7.10
2018-02-23T10:40:44.350Z,7.00
2018-02-23T10:41:44.371Z,6.90
2018-02-23T10:42:44.400Z,7.30
2018-02-23T10:43:44.436Z,6.60
2018-02-23T10:44:44.453Z,6.90
2018-02-23T10:45:44.488Z,7.40
2018-02-23T10:46:44.508Z,6.70
2018-02-23T10:47:44.541Z,6.70
2018-02-23T10:48:44.561Z,6.80
2018-02-23T10:49:44.594Z,6.50
2018-02-23T10:50:44.617Z,6.70
2018-02-23T10:51:44.663Z,6.20
2018-02-23T10:52:44.673Z,6.00
2018-02-23T10:53:44.703Z,6.30
2018-02-23T10:54:44.725Z,5.80
2018-02-23T10:55:44.758Z,6.10
2018-02-23T10:56:44.780Z,6.00
2018-02-23T10:57:44.820Z,6.30
2018-02-23T10:58:44.833Z,6.10
2018-02-23T10:59:44.866Z,6.40
2018-02-23T11:00:44.893Z,5.90
2018-02-23T11:01:44.915Z,6.30
2018-02-23T11:02:44.942Z,6.20
2018-02-23T11:03:44.976Z,6.30
2018-02-23T11:04:45.000Z,6.40
2018-02-23T11:05:45.025Z,6.00
2018-02-23T11:06:45.053Z,6.10
2018-02-23T11:07:45.085Z,6.00
2018-02-23T11:08:45.106Z,5.80
2018-02-23T11:09:45.139Z,5.90
2018-02-23T11:10:45.160Z,5.80
2018-02-23T11:11:45.194Z,6.00
2018-02-23T11:12:45.214Z,5.70
2018-02-23T11:13:45.247Z,6.80
2018-02-23T11:14:45.275Z,6.80
2018-02-23T11:15:45.298Z,6.50
2018-02-23T11:16:45.323Z,6.60
2018-02-23T11:17:45.358Z,6.50
2018-02-23T11:18:45.385Z,6.80
2018-02-23T11:19:45.408Z,7.10
2018-02-23T11:20:45.435Z,7.00
2018-02-23T11:21:45.467Z,7.70
2018-02-23T11:22:45.490Z,7.50
2018-02-23T11:23:45.523Z,7.40
2018-02-23T11:24:45.549Z,7.30
2018-02-23T11:25:45.571Z,7.40
2018-02-23T11:26:45.603Z,7.80
2018-02-23T11:27:45.634Z,8.00
2018-02-23T11:28:45.661Z,8.60
2018-02-23T11:29:45.682Z,7.00
2018-02-23T11:30:45.715Z,7.30
2018-02-23T11:31:45.738Z,7.20
2018-02-23T11:32:45.773Z,7.20
2018-02-23T11:33:45.796Z,7.40
2018-02-23T11:34:45.828Z,7.30
2018-02-23T11:35:45.850Z,7.30
2018-02-23T11:36:45.885Z,8.00
2018-02-23T11:37:45.905Z,7.60
2018-02-23T11:38:45.933Z,7.30
2018-02-23T11:39:45.968Z,8.00
2018-02-23T11:40:45.993Z,7.60
2018-02-23T11:41:46.016Z,7.90
2018-02-23T11:42:46.047Z,8.00
2018-02-23T11:43:46.078Z,7.80
2018-02-23T11:44:46.107Z,7.80
2018-02-23T11:45:46.128Z,8.40
2018-02-23T11:46:46.157Z,8.50
2018-02-23T11:47:46.189Z,8.60
2018-02-23T11:48:46.210Z,8.40
2018-02-23T11:49:46.245Z,8.30
2018-02-23T11:50:46.266Z,8.80
2018-02-23T11:51:46.301Z,8.40
2018-02-23T11:52:46.321Z,8.70
2018-02-23T11:53:46.359Z,8.60
2018-02-23T11:54:46.381Z,8.90
2018-02-23T11:55:46.410Z,8.60
2018-02-23T11:56:46.437Z,8.30
2018-02-23T11:57:46.460Z,8.60
2018-02-23T11:58:46.492Z,9.20
2018-02-23T11:59:46.514Z,9.00
2018-02-23T12:00:46.547Z,9.30
2018-02-23T12:01:46.568Z,9.50
2018-02-23T12:02:46.595Z,9.40
2018-02-23T12:03:46.629Z,9.60
2018-02-23T12:04:46.651Z,9.40
2018-02-23T12:05:46.684Z,9.60
2018-02-23T12:06:46.704Z,9.70
2018-02-23T12:07:46.738Z,9.60
2018-02-23T12:08:46.759Z,9.50
2018-02-23T12:09:46.792Z,9.80
2018-02-23T12:10:46.820Z,9.80
2018-02-23T12:11:46.842Z,9.50
2018-02-23T12:12:46.874Z,9.70
2018-02-23T12:13:46.901Z,10.10
2018-02-23T12:14:46.923Z,10.20
2018-02-23T12:15:47.011Z,9.60
2018-02-23T12:16:46.976Z,10.70
2018-02-23T12:17:47.010Z,10.10
2018-02-23T12:18:47.039Z,9.60
2018-02-23T12:19:47.059Z,9.40
2018-02-23T12:20:47.092Z,10.40
2018-02-23T12:21:47.112Z,10.10
2018-02-23T12:22:47.147Z,9.80
2018-02-23T12:23:47.167Z,9.40
2018-02-23T12:24:47.199Z,10.20
2018-02-23T12:25:47.221Z,9.90
2018-02-23T12:26:47.247Z,10.40
2018-02-23T12:27:47.275Z,10.40
2018-02-23T12:28:47.302Z,10.00
2018-02-23T12:29:47.328Z,9.90
2018-02-23T12:30:47.355Z,9.70
2018-02-23T12:31:47.389Z,9.20
2018-02-23T12:32:47.416Z,10.20
2018-02-23T12:33:47.437Z,9.90
2018-02-23T12:34:47.463Z,10.40
2018-02-23T12:35:47.495Z,10.00
2018-02-23T12:36:47.521Z,9.80
2018-02-23T12:37:47.542Z,9.60
2018-02-23T12:38:47.570Z,9.80
2018-02-23T12:39:47.603Z,10.30
2018-02-23T12:40:47.629Z,9.60
2018-02-23T12:41:47.648Z,10.20
2018-02-23T12:42:47.676Z,10.10
2018-02-23T12:43:47.708Z,9.90
2018-02-23T12:44:47.733Z,10.10
2018-02-23T12:45:47.761Z,9.60
2018-02-23T12:46:47.787Z,9.80
2018-02-23T12:47:47.819Z,10.00
2018-02-23T12:48:47.834Z,10.00
2018-02-23T12:49:47.869Z,9.50
2018-02-23T12:50:47.893Z,9.90
2018-02-23T12:51:47.914Z,10.00
2018-02-23T12:52:47.938Z,9.80
2018-02-23T12:53:47.970Z,9.90
2018-02-23T12:54:47.996Z,9.50
2018-02-23T12:55:48.018Z,9.70
2018-02-23T12:56:48.044Z,9.60
2018-02-23T12:57:48.074Z,9.40